Time;durP1;ratioP1;P1;durP2;ratioP2;P2;SDS_P1;SDS_P2;PMS_P1;PMS_P2;Temp;Humidity;BMP_temperature;BMP_pressure;BME280_temperature;BME280_humidity;BME280_pressure;Samples;Min_cycle;Max_cycle;Signal;HPM_P1;HPM_P2
2023/04/10 00:02:18;;;;;;;;;;;10.00;99.90;;;;;;5096388;28;19989;-62
2023/04/10 00:04:43;;;;;;;;;;;9.80;99.90;;;;;;5096593;28;20038;-60
2023/04/10 00:07:10;;;;;;;;;;;9.80;99.90;;;;;;5096468;28;20005;-62
2023/04/10 00:09:35;;;;;;;;;;;9.80;99.90;;;;;;5096351;28;19996;-60
2023/04/10 00:12:01;;;;;;;;;;;9.80;99.90;;;;;;5096378;28;19984;-60
2023/04/10 00:14:26;;;;;;;;;;;9.70;99.90;;;;;;5096381;28;19985;-61
2023/04/10 00:16:52;;;;;;;;;;;9.70;99.90;;;;;;5096480;28;20017;-62
2023/04/10 00:19:18;;;;;;;;;;;9.70;99.90;;;;;;5096209;28;20011;-63
2023/04/10 00:21:43;;;;;;;;;;;9.70;99.90;;;;;;5095901;28;20509;-61
2023/04/10 00:24:09;;;;;;;;;;;9.70;99.90;;;;;;5096280;28;19992;-61
2023/04/10 00:26:35;;;;;;;;;;;9.60;99.90;;;;;;5096315;28;20025;-61
2023/04/10 00:29:01;;;;;;;;;;;9.70;99.90;;;;;;5095958;28;20339;-61
2023/04/10 00:31:26;;;;;;;;;;;9.60;99.90;;;;;;5096020;28;20017;-60
2023/04/10 00:33:52;;;;;;;;;;;9.60;99.90;;;;;;5096200;28;20485;-62
2023/04/10 00:36:18;;;;;;;;;;;9.70;99.90;;;;;;5095476;28;20525;-61
2023/04/10 00:38:43;;;;;;;;;;;9.70;99.90;;;;;;5096188;28;20351;-62
2023/04/10 00:41:09;;;;;;;;;;;9.70;99.90;;;;;;5095811;28;20028;-60
2023/04/10 00:43:35;;;;;;;;;;;9.80;99.90;;;;;;5095739;28;19985;-60
2023/04/10 00:46:01;;;;;;;;;;;9.80;99.90;;;;;;5095804;28;19985;-62
2023/04/10 00:48:26;;;;;;;;;;;9.80;99.90;;;;;;5095947;28;20076;-61
2023/04/10 00:50:52;;;;;;;;;;;9.80;99.90;;;;;;5095362;28;20420;-61
2023/04/10 00:53:18;;;;;;;;;;;9.70;99.90;;;;;;5095847;28;19989;-61
2023/04/10 00:55:44;;;;;;;;;;;9.70;99.90;;;;;;5095478;28;20493;-62
2023/04/10 00:58:13;;;;;;;;;;;9.70;99.90;;;;;;5095412;28;20032;-59
2023/04/10 01:00:39;;;;;;;;;;;9.70;99.90;;;;;;5096013;28;20360;-62
2023/04/10 01:03:05;;;;;;;;;;;9.70;99.90;;;;;;5095528;28;19985;-63
2023/04/10 01:05:34;;;;;;;;;;;9.70;99.90;;;;;;5095010;28;20522;-61
2023/04/10 01:08:07;;;;;;;;;;;9.70;99.90;;;;;;5095545;28;19996;-61
2023/04/10 01:10:47;;;;;;;;;;;9.70;99.90;;;;;;5095558;28;20038;-61
2023/04/10 01:13:15;;;;;;;;;;;9.70;99.90;;;;;;5095365;28;20439;-61
2023/04/10 01:15:51;;;;;;;;;;;9.70;99.90;;;;;;5095086;28;20009;-62
2023/04/10 01:18:32;;;;;;;;;;;9.70;99.90;;;;;;5095268;28;19989;-60
2023/04/10 01:21:01;;;;;;;;;;;9.70;99.90;;;;;;5094878;28;19985;-59
2023/04/10 01:23:35;;;;;;;;;;;9.70;99.90;;;;;;5094985;28;19989;-59
2023/04/10 01:26:24;;;;;;;;;;;9.70;99.90;;;;;;5095281;28;20002;-60
2023/04/10 01:28:59;;;;;;;;;;;9.70;99.90;;;;;;5094618;28;20079;-63
2023/04/10 01:31:36;;;;;;;;;;;9.70;99.90;;;;;;5094987;28;19991;-61
2023/04/10 01:34:15;;;;;;;;;;;9.70;99.90;;;;;;5095021;28;20011;-60
2023/04/10 01:37:00;;;;;;;;;;;9.60;99.90;;;;;;5094741;28;20024;-59
2023/04/10 01:39:27;;;;;;;;;;;9.60;99.90;;;;;;5094623;28;19997;-61
2023/04/10 01:41:53;;;;;;;;;;;9.50;99.90;;;;;;5094114;28;19985;-60
2023/04/10 01:44:22;;;;;;;;;;;9.50;99.90;;;;;;5094640;28;20354;-60
2023/04/10 01:46:48;;;;;;;;;;;9.50;99.90;;;;;;5094562;28;20000;-62
2023/04/10 01:49:14;;;;;;;;;;;9.50;99.90;;;;;;5094333;28;19989;-62
2023/04/10 01:51:40;;;;;;;;;;;9.40;99.90;;;;;;5094710;28;19989;-60
2023/04/10 01:54:06;;;;;;;;;;;9.50;99.90;;;;;;5094376;28;20016;-62
2023/04/10 01:56:32;;;;;;;;;;;9.50;99.90;;;;;;5094320;28;20019;-60
2023/04/10 01:58:58;;;;;;;;;;;9.40;99.90;;;;;;5094449;28;20079;-59
2023/04/10 02:01:23;;;;;;;;;;;9.40;99.90;;;;;;5094220;28;20072;-60
2023/04/10 02:03:49;;;;;;;;;;;9.40;99.90;;;;;;5094127;28;20465;-61
2023/04/10 02:06:26;;;;;;;;;;;9.30;99.90;;;;;;5094463;28;20096;-62
2023/04/10 02:09:06;;;;;;;;;;;9.10;99.90;;;;;;5094185;28;19989;-63
2023/04/10 02:11:34;;;;;;;;;;;9.20;99.90;;;;;;5094270;28;20037;-62
2023/04/10 02:14:01;;;;;;;;;;;9.20;99.90;;;;;;5094091;28;20151;-62
2023/04/10 02:16:28;;;;;;;;;;;9.20;99.90;;;;;;5094071;28;20501;-60
2023/04/10 02:18:54;;;;;;;;;;;9.00;99.90;;;;;;5093971;28;20478;-60
2023/04/10 02:21:20;;;;;;;;;;;9.00;99.90;;;;;;5093990;28;20028;-63
2023/04/10 02:23:45;;;;;;;;;;;8.90;99.90;;;;;;5094351;28;20448;-62
2023/04/10 02:26:11;;;;;;;;;;;8.90;99.90;;;;;;5093952;28;19992;-60
2023/04/10 02:28:38;;;;;;;;;;;8.90;99.90;;;;;;5094155;28;19989;-62
2023/04/10 02:31:04;;;;;;;;;;;8.90;99.90;;;;;;5094066;28;20068;-62
2023/04/10 02:33:29;;;;;;;;;;;9.00;99.90;;;;;;5093664;28;20088;-62
2023/04/10 02:35:55;;;;;;;;;;;9.10;99.90;;;;;;5093576;28;20028;-60
2023/04/10 02:38:21;;;;;;;;;;;9.00;99.90;;;;;;5093880;28;20066;-60
2023/04/10 02:40:46;;;;;;;;;;;9.10;99.90;;;;;;5093867;28;19986;-62
2023/04/10 02:43:12;;;;;;;;;;;9.10;99.90;;;;;;5093874;28;19989;-62
2023/04/10 02:45:37;;;;;;;;;;;9.10;99.90;;;;;;5093730;28;19985;-62
2023/04/10 02:48:06;;;;;;;;;;;9.10;99.90;;;;;;5093551;28;19989;-63
2023/04/10 02:50:32;;;;;;;;;;;9.20;99.90;;;;;;5093660;28;19988;-60
2023/04/10 02:52:57;;;;;;;;;;;9.30;99.90;;;;;;5096952;28;19997;-61
2023/04/10 02:55:23;;;;;;;;;;;9.30;99.90;;;;;;5098024;28;20060;-61
2023/04/10 02:57:48;;;;;;;;;;;9.30;99.90;;;;;;5097893;28;19992;-60
2023/04/10 03:00:14;;;;;;;;;;;9.30;99.90;;;;;;5097743;28;20028;-62
2023/04/10 03:02:40;;;;;;;;;;;9.40;99.90;;;;;;5097578;28;20426;-61
2023/04/10 03:05:07;;;;;;;;;;;9.30;99.90;;;;;;5098007;28;20509;-61
2023/04/10 03:07:33;;;;;;;;;;;9.30;99.90;;;;;;5097837;28;20008;-62
2023/04/10 03:09:58;;;;;;;;;;;9.30;99.90;;;;;;5097652;28;19992;-61
2023/04/10 03:12:24;;;;;;;;;;;9.30;99.90;;;;;;5097540;28;19989;-60
2023/04/10 03:14:49;;;;;;;;;;;9.30;99.90;;;;;;5097778;28;20072;-61
2023/04/10 03:17:15;;;;;;;;;;;9.30;99.90;;;;;;5097146;28;20070;-61
2023/04/10 03:19:41;;;;;;;;;;;9.30;99.90;;;;;;5097396;28;19989;-62
2023/04/10 03:22:06;;;;;;;;;;;9.30;99.90;;;;;;5097390;28;19992;-62
2023/04/10 03:24:32;;;;;;;;;;;9.20;99.90;;;;;;5097535;28;19995;-60
2023/04/10 03:26:57;;;;;;;;;;;9.10;99.90;;;;;;5097232;28;20355;-60
2023/04/10 03:29:23;;;;;;;;;;;9.20;99.90;;;;;;5097267;28;20363;-62
2023/04/10 03:31:48;;;;;;;;;;;9.20;99.90;;;;;;5096853;28;20028;-62
2023/04/10 03:34:14;;;;;;;;;;;9.20;99.90;;;;;;5096892;28;19989;-60
2023/04/10 03:36:40;;;;;;;;;;;9.10;99.90;;;;;;5097041;28;20008;-60
2023/04/10 03:39:05;;;;;;;;;;;9.10;99.90;;;;;;5096970;28;20076;-62
2023/04/10 03:41:31;;;;;;;;;;;9.10;99.90;;;;;;5097140;28;19985;-62
2023/04/10 03:43:56;;;;;;;;;;;9.20;99.90;;;;;;5096942;28;20443;-61
2023/04/10 03:46:22;;;;;;;;;;;8.90;99.90;;;;;;5096783;28;20034;-61
2023/04/10 03:48:49;;;;;;;;;;;8.80;99.90;;;;;;5096815;28;20028;-61
2023/04/10 03:51:15;;;;;;;;;;;8.80;99.90;;;;;;5096976;28;20467;-63
2023/04/10 03:53:40;;;;;;;;;;;8.90;99.90;;;;;;5096846;28;20079;-62
2023/04/10 03:56:07;;;;;;;;;;;9.00;99.90;;;;;;5096527;28;20494;-61
2023/04/10 03:58:32;;;;;;;;;;;9.00;99.90;;;;;;5096808;28;19992;-62
2023/04/10 04:00:58;;;;;;;;;;;9.10;99.90;;;;;;5096453;28;19985;-61
2023/04/10 04:03:23;;;;;;;;;;;9.10;99.90;;;;;;5096105;28;19989;-60
2023/04/10 04:05:49;;;;;;;;;;;9.10;99.90;;;;;;5096582;28;20507;-60
2023/04/10 04:08:15;;;;;;;;;;;8.90;99.90;;;;;;5096494;28;20034;-60
2023/04/10 04:10:40;;;;;;;;;;;8.90;99.90;;;;;;5096446;28;19985;-61
2023/04/10 04:13:06;;;;;;;;;;;9.00;99.90;;;;;;5096446;28;20054;-61
2023/04/10 04:15:31;;;;;;;;;;;9.00;99.90;;;;;;5096123;28;20082;-61
2023/04/10 04:17:57;;;;;;;;;;;8.80;99.90;;;;;;5096379;28;20053;-60
2023/04/10 04:20:23;;;;;;;;;;;8.70;99.90;;;;;;5096470;28;20032;-62
2023/04/10 04:22:48;;;;;;;;;;;8.40;99.90;;;;;;5096536;28;20351;-62
2023/04/10 04:25:14;;;;;;;;;;;8.50;99.90;;;;;;5096086;28;20439;-61
2023/04/10 04:27:40;;;;;;;;;;;8.50;99.90;;;;;;5095984;28;20015;-62
2023/04/10 04:30:06;;;;;;;;;;;8.60;99.90;;;;;;5096147;28;20095;-60
2023/04/10 04:32:31;;;;;;;;;;;8.60;99.90;;;;;;5095949;28;20052;-63
2023/04/10 04:34:57;;;;;;;;;;;8.70;99.90;;;;;;5095714;28;20028;-62
2023/04/10 04:37:23;;;;;;;;;;;8.70;99.90;;;;;;5095960;28;19998;-61
2023/04/10 04:39:48;;;;;;;;;;;8.80;99.90;;;;;;5095916;28;20031;-60
2023/04/10 04:42:14;;;;;;;;;;;8.60;99.90;;;;;;5095787;28;19985;-62
2023/04/10 04:44:39;;;;;;;;;;;8.60;99.90;;;;;;5095699;28;19992;-62
2023/04/10 04:47:05;;;;;;;;;;;8.60;99.90;;;;;;5095813;28;20451;-61
2023/04/10 04:49:31;;;;;;;;;;;8.60;99.90;;;;;;5095729;28;20466;-62
2023/04/10 04:51:56;;;;;;;;;;;8.60;99.90;;;;;;5095379;28;20451;-59
2023/04/10 04:54:22;;;;;;;;;;;8.50;99.90;;;;;;5095631;28;19989;-60
2023/04/10 04:56:47;;;;;;;;;;;8.30;99.90;;;;;;5095462;28;20051;-60
2023/04/10 04:59:13;;;;;;;;;;;8.40;99.90;;;;;;5095342;28;19992;-62
2023/04/10 05:01:38;;;;;;;;;;;8.60;99.90;;;;;;5095250;28;20466;-60
2023/04/10 05:04:04;;;;;;;;;;;8.70;99.90;;;;;;5093635;28;20042;-60
2023/04/10 05:06:30;;;;;;;;;;;8.70;99.90;;;;;;5095270;28;20004;-60
2023/04/10 05:08:56;;;;;;;;;;;8.70;99.90;;;;;;5094025;28;20047;-61
2023/04/10 05:11:21;;;;;;;;;;;8.60;99.90;;;;;;5094786;28;20455;-61
2023/04/10 05:13:47;;;;;;;;;;;8.60;99.90;;;;;;5095190;28;20034;-60
2023/04/10 05:16:13;;;;;;;;;;;8.70;99.90;;;;;;5094024;28;20019;-61
2023/04/10 05:18:38;;;;;;;;;;;8.70;99.90;;;;;;5095079;28;19990;-59
2023/04/10 05:21:04;;;;;;;;;;;8.80;99.90;;;;;;5095052;28;19985;-64
2023/04/10 05:23:30;;;;;;;;;;;8.70;99.90;;;;;;5094924;28;20111;-63
2023/04/10 05:25:55;;;;;;;;;;;8.70;99.90;;;;;;5092156;28;19989;-62
2023/04/10 05:28:22;;;;;;;;;;;8.70;99.90;;;;;;5093519;28;19989;-61
2023/04/10 05:30:47;;;;;;;;;;;8.70;99.90;;;;;;5095052;28;20041;-61
2023/04/10 05:33:13;;;;;;;;;;;8.70;99.90;;;;;;5094833;28;20384;-60
2023/04/10 05:35:38;;;;;;;;;;;8.80;99.90;;;;;;5094557;28;20390;-62
2023/04/10 05:38:04;;;;;;;;;;;8.50;99.90;;;;;;5094849;28;19989;-62
2023/04/10 05:40:30;;;;;;;;;;;8.50;99.90;;;;;;5092021;28;20035;-61
2023/04/10 05:42:56;;;;;;;;;;;8.60;99.90;;;;;;5091451;28;20617;-62
2023/04/10 05:45:22;;;;;;;;;;;8.40;99.90;;;;;;5092033;28;19993;-62
2023/04/10 05:47:47;;;;;;;;;;;8.40;99.90;;;;;;5092627;28;20347;-62
2023/04/10 05:50:13;;;;;;;;;;;8.40;99.90;;;;;;5092653;28;19993;-62
2023/04/10 05:52:39;;;;;;;;;;;8.40;99.90;;;;;;5092605;28;19985;-62
2023/04/10 05:55:04;;;;;;;;;;;8.40;99.90;;;;;;5092840;28;20035;-60
2023/04/10 05:57:30;;;;;;;;;;;8.50;99.90;;;;;;5092300;28;19985;-61
2023/04/10 05:59:56;;;;;;;;;;;8.40;99.90;;;;;;5092412;28;19989;-61
2023/04/10 06:02:22;;;;;;;;;;;8.40;99.90;;;;;;5092319;28;19998;-62
2023/04/10 06:04:47;;;;;;;;;;;8.30;99.90;;;;;;5092450;28;19996;-61
2023/04/10 06:07:13;;;;;;;;;;;8.30;99.90;;;;;;5093547;28;20435;-63
2023/04/10 06:09:38;;;;;;;;;;;8.20;99.90;;;;;;5093692;28;19996;-64
2023/04/10 06:12:04;;;;;;;;;;;8.30;99.90;;;;;;5092720;28;20005;-62
2023/04/10 06:14:30;;;;;;;;;;;8.40;99.90;;;;;;5092239;28;19993;-64
2023/04/10 06:16:55;;;;;;;;;;;8.50;99.90;;;;;;5086133;28;20009;-61
2023/04/10 06:19:21;;;;;;;;;;;8.60;99.90;;;;;;5087458;28;20070;-63
2023/04/10 06:21:47;;;;;;;;;;;8.70;99.90;;;;;;5092956;28;20038;-65
2023/04/10 06:24:14;;;;;;;;;;;8.70;99.90;;;;;;5091670;28;19985;-60
2023/04/10 06:26:40;;;;;;;;;;;8.60;99.90;;;;;;5092981;28;19985;-63
2023/04/10 06:29:05;;;;;;;;;;;8.60;99.90;;;;;;5092293;28;20068;-65
2023/04/10 06:31:34;;;;;;;;;;;8.70;99.90;;;;;;5089839;28;19997;-67
2023/04/10 06:33:59;;;;;;;;;;;8.70;99.90;;;;;;5087086;28;19989;-63
2023/04/10 06:36:26;;;;;;;;;;;8.70;99.90;;;;;;5090751;28;20102;-62
2023/04/10 06:38:53;;;;;;;;;;;8.80;99.90;;;;;;5089895;28;20297;-63
2023/04/10 06:41:19;;;;;;;;;;;8.70;99.90;;;;;;5091070;28;19988;-61
2023/04/10 06:43:45;;;;;;;;;;;8.80;99.90;;;;;;5091558;28;20389;-64
2023/04/10 06:46:10;;;;;;;;;;;8.80;99.90;;;;;;5092253;28;20040;-64
2023/04/10 06:48:36;;;;;;;;;;;8.90;99.90;;;;;;5086372;28;19996;-65
2023/04/10 06:51:02;;;;;;;;;;;8.90;99.90;;;;;;5087910;28;20050;-62
2023/04/10 06:53:28;;;;;;;;;;;8.90;99.90;;;;;;5088271;28;19992;-63
2023/04/10 06:55:53;;;;;;;;;;;9.00;99.90;;;;;;5090694;28;20012;-61
2023/04/10 06:58:19;;;;;;;;;;;9.00;99.90;;;;;;5088511;28;19993;-60
2023/04/10 07:00:45;;;;;;;;;;;9.00;99.90;;;;;;5078924;28;19989;-63
2023/04/10 07:03:11;;;;;;;;;;;9.00;99.90;;;;;;5085026;28;19992;-70
2023/04/10 07:05:36;;;;;;;;;;;9.10;99.90;;;;;;5084836;28;20462;-64
2023/04/10 07:08:02;;;;;;;;;;;9.20;99.90;;;;;;5080997;28;19997;-63
2023/04/10 07:10:27;;;;;;;;;;;9.20;99.90;;;;;;5093419;28;19993;-65
2023/04/10 07:12:53;;;;;;;;;;;9.40;99.90;;;;;;5087715;28;20130;-63
2023/04/10 07:15:19;;;;;;;;;;;9.40;99.90;;;;;;5085726;28;20363;-62
2023/04/10 07:17:47;;;;;;;;;;;9.30;99.90;;;;;;5096579;28;19989;-62
2023/04/10 07:20:26;;;;;;;;;;;9.40;99.90;;;;;;5085811;28;20005;-64
2023/04/10 07:22:55;;;;;;;;;;;9.60;99.90;;;;;;5088812;28;19997;-64
2023/04/10 07:28:26;;;;;;;;;;;9.90;99.90;;;;;;5089347;28;20050;-67
2023/04/10 07:31:10;;;;;;;;;;;9.90;99.90;;;;;;5088154;28;19988;-63
2023/04/10 07:33:37;;;;;;;;;;;10.00;99.90;;;;;;5090268;28;19993;-63
2023/04/10 07:36:04;;;;;;;;;;;9.80;99.90;;;;;;5086741;28;20116;-68
2023/04/10 07:38:30;;;;;;;;;;;9.50;99.90;;;;;;5083620;28;19989;-62
2023/04/10 07:41:03;;;;;;;;;;;9.60;99.90;;;;;;5087982;28;19997;-67
2023/04/10 07:43:30;;;;;;;;;;;9.70;99.90;;;;;;5087351;28;19993;-65
2023/04/10 07:46:11;;;;;;;;;;;9.50;99.90;;;;;;5094428;28;19989;-63
2023/04/10 07:48:37;;;;;;;;;;;9.50;99.90;;;;;;5084700;28;19996;-62
2023/04/10 07:51:14;;;;;;;;;;;9.60;99.90;;;;;;5085717;28;19988;-63
2023/04/10 07:53:40;;;;;;;;;;;9.60;99.90;;;;;;5084197;28;20004;-62
2023/04/10 07:56:40;;;;;;;;;;;9.50;99.90;;;;;;5088098;28;20091;-64
2023/04/10 07:59:08;;;;;;;;;;;9.50;99.90;;;;;;5085011;28;20427;-62
2023/04/10 08:01:41;;;;;;;;;;;9.40;99.90;;;;;;5083809;28;20257;-63
2023/04/10 08:04:07;;;;;;;;;;;9.30;99.90;;;;;;5104256;27;19997;-64
2023/04/10 08:06:33;;;;;;;;;;;9.30;99.90;;;;;;5090641;28;19996;-64
2023/04/10 08:09:00;;;;;;;;;;;9.30;99.90;;;;;;5091866;28;20077;-63
2023/04/10 08:11:33;;;;;;;;;;;9.40;99.90;;;;;;5088162;28;19997;-63
2023/04/10 08:14:02;;;;;;;;;;;9.40;99.90;;;;;;5087558;28;20416;-66
2023/04/10 08:16:29;;;;;;;;;;;9.50;99.90;;;;;;5087886;28;20009;-62
2023/04/10 08:18:56;;;;;;;;;;;9.50;99.90;;;;;;5088567;28;19989;-61
2023/04/10 08:21:22;;;;;;;;;;;9.60;99.90;;;;;;5089346;28;19993;-62
2023/04/10 08:23:55;;;;;;;;;;;9.90;99.90;;;;;;5090971;28;19997;-63
2023/04/10 08:26:21;;;;;;;;;;;10.10;99.90;;;;;;5084846;28;19997;-63
2023/04/10 08:28:50;;;;;;;;;;;10.30;99.90;;;;;;5088661;28;19989;-60
2023/04/10 08:31:16;;;;;;;;;;;10.40;99.90;;;;;;5089853;28;19993;-60
2023/04/10 08:33:42;;;;;;;;;;;10.70;99.90;;;;;;5083495;28;20288;-62
2023/04/10 08:36:08;;;;;;;;;;;11.00;99.90;;;;;;5082844;28;20017;-60
2023/04/10 08:38:33;;;;;;;;;;;11.10;99.90;;;;;;5082068;28;20701;-58
2023/04/10 08:40:59;;;;;;;;;;;11.10;99.90;;;;;;5078460;28;19989;-59
2023/04/10 08:43:24;;;;;;;;;;;10.90;99.90;;;;;;5084713;28;19993;-64
2023/04/10 08:45:51;;;;;;;;;;;10.80;99.90;;;;;;5087639;28;20555;-61
2023/04/10 08:48:18;;;;;;;;;;;11.00;99.90;;;;;;5084433;28;20447;-60
2023/04/10 08:50:44;;;;;;;;;;;11.20;99.90;;;;;;5081320;28;19993;-63
2023/04/10 08:53:12;;;;;;;;;;;11.20;99.90;;;;;;5078255;28;19989;-61
2023/04/10 08:55:38;;;;;;;;;;;11.00;99.90;;;;;;5070764;28;20005;-62
2023/04/10 08:58:03;;;;;;;;;;;10.90;99.90;;;;;;5067634;28;19998;-62
2023/04/10 09:00:33;;;;;;;;;;;11.10;99.90;;;;;;5086904;28;20647;-63
2023/04/10 09:02:59;;;;;;;;;;;10.80;99.90;;;;;;5088086;28;20030;-62
2023/04/10 09:05:28;;;;;;;;;;;10.90;99.90;;;;;;5089555;28;19996;-61
2023/04/10 09:07:54;;;;;;;;;;;11.10;99.90;;;;;;5084103;28;19995;-63
2023/04/10 09:10:19;;;;;;;;;;;11.20;99.90;;;;;;5070708;28;19993;-62
2023/04/10 09:12:46;;;;;;;;;;;11.20;99.90;;;;;;5089501;28;20324;-61
2023/04/10 09:15:12;;;;;;;;;;;11.20;99.90;;;;;;5089406;28;19985;-63
2023/04/10 09:17:53;;;;;;;;;;;11.20;99.90;;;;;;5091344;28;20362;-62
2023/04/10 09:20:20;;;;;;;;;;;11.20;99.90;;;;;;5074179;28;19996;-63
2023/04/10 09:22:46;;;;;;;;;;;11.40;99.90;;;;;;5092818;28;20024;-62
2023/04/10 09:25:27;;;;;;;;;;;11.50;99.90;;;;;;5093470;28;19992;-62
2023/04/10 09:27:58;;;;;;;;;;;11.30;99.90;;;;;;5091729;28;19984;-62
2023/04/10 09:30:34;;;;;;;;;;;11.40;99.90;;;;;;5073348;28;19989;-63
2023/04/10 09:33:00;;;;;;;;;;;11.60;99.90;;;;;;5074711;28;20114;-62
2023/04/10 09:35:34;;;;;;;;;;;11.70;99.90;;;;;;5072884;28;20479;-63
2023/04/10 09:38:00;;;;;;;;;;;11.80;99.90;;;;;;5073994;28;19989;-63
2023/04/10 09:40:25;;;;;;;;;;;11.90;99.10;;;;;;5071328;28;20573;-64
2023/04/10 09:42:51;;;;;;;;;;;11.90;99.90;;;;;;5084274;28;19989;-62
2023/04/10 09:45:21;;;;;;;;;;;12.00;99.90;;;;;;5084498;28;20074;-63
2023/04/10 09:48:06;;;;;;;;;;;12.30;99.90;;;;;;5087364;28;19992;-64
2023/04/10 09:50:42;;;;;;;;;;;12.60;99.90;;;;;;5075542;28;20430;-62
2023/04/10 09:53:08;;;;;;;;;;;12.40;99.90;;;;;;5080514;28;19989;-62
2023/04/10 09:55:35;;;;;;;;;;;11.80;99.90;;;;;;5074776;28;20013;-61
2023/04/10 09:58:02;;;;;;;;;;;11.70;99.90;;;;;;5087931;28;20408;-62
2023/04/10 10:00:28;;;;;;;;;;;11.80;99.90;;;;;;5091214;28;19993;-62
2023/04/10 10:02:54;;;;;;;;;;;11.80;99.90;;;;;;5074819;28;19989;-65
2023/04/10 10:05:21;;;;;;;;;;;11.70;99.90;;;;;;5081055;28;19996;-63
2023/04/10 10:07:48;;;;;;;;;;;11.80;99.90;;;;;;5078683;28;19997;-63
2023/04/10 10:10:13;;;;;;;;;;;11.80;99.90;;;;;;5077701;28;19989;-63
2023/04/10 10:12:49;;;;;;;;;;;11.70;99.90;;;;;;5071798;28;20087;-64
2023/04/10 10:15:17;;;;;;;;;;;11.80;99.90;;;;;;5083146;28;20109;-63
2023/04/10 10:17:59;;;;;;;;;;;12.00;99.90;;;;;;5071935;28;19993;-63
2023/04/10 10:20:25;;;;;;;;;;;12.10;99.90;;;;;;5085423;28;19997;-64
2023/04/10 10:22:51;;;;;;;;;;;11.90;99.90;;;;;;5082780;28;19996;-62
2023/04/10 10:25:18;;;;;;;;;;;11.90;99.90;;;;;;5093078;28;20126;-64
2023/04/10 10:27:45;;;;;;;;;;;11.70;99.90;;;;;;5076005;28;20000;-66
2023/04/10 10:30:11;;;;;;;;;;;11.50;99.90;;;;;;5081141;28;20008;-65
2023/04/10 10:32:38;;;;;;;;;;;11.40;99.90;;;;;;5088153;28;19993;-66
2023/04/10 10:35:06;;;;;;;;;;;11.50;99.90;;;;;;5078601;28;20200;-65
2023/04/10 10:37:33;;;;;;;;;;;11.50;99.90;;;;;;5100970;28;20013;-64
2023/04/10 10:40:11;;;;;;;;;;;11.60;99.90;;;;;;5089469;28;19993;-64
2023/04/10 10:42:37;;;;;;;;;;;11.70;99.90;;;;;;5086961;28;20465;-63
2023/04/10 10:45:08;;;;;;;;;;;11.70;99.90;;;;;;5087620;28;19989;-64
2023/04/10 10:47:38;;;;;;;;;;;11.70;99.90;;;;;;5079328;28;20015;-64
2023/04/10 10:50:04;;;;;;;;;;;11.70;99.90;;;;;;5077408;28;19995;-65
2023/04/10 10:52:41;;;;;;;;;;;11.50;99.90;;;;;;5092491;28;20552;-62
2023/04/10 10:55:35;;;;;;;;;;;11.20;99.90;;;;;;5096525;28;19996;-62
2023/04/10 10:58:02;;;;;;;;;;;11.30;99.90;;;;;;5096342;28;20019;-64
2023/04/10 11:00:46;;;;;;;;;;;11.20;99.90;;;;;;5092545;28;20079;-67
2023/04/10 11:03:12;;;;;;;;;;;11.30;99.90;;;;;;5099033;28;20035;-64
2023/04/10 11:05:57;;;;;;;;;;;11.50;99.90;;;;;;5090431;28;19997;-64
2023/04/10 11:08:32;;;;;;;;;;;11.60;99.90;;;;;;5096308;28;20432;-63
2023/04/10 11:11:01;;;;;;;;;;;11.60;99.90;;;;;;5084167;28;20447;-62
2023/04/10 11:13:26;;;;;;;;;;;11.60;99.90;;;;;;5079929;28;20016;-65
2023/04/10 11:15:53;;;;;;;;;;;11.60;99.90;;;;;;5087058;28;20043;-64
2023/04/10 11:18:19;;;;;;;;;;;11.40;99.90;;;;;;5075864;28;19996;-63
2023/04/10 11:21:07;;;;;;;;;;;11.10;99.90;;;;;;5078357;28;20032;-63
2023/04/10 11:23:32;;;;;;;;;;;11.10;99.90;;;;;;5093093;28;19985;-63
2023/04/10 11:25:58;;;;;;;;;;;11.10;99.90;;;;;;5075289;28;19994;-63
2023/04/10 11:28:44;;;;;;;;;;;11.30;99.90;;;;;;5086606;28;20457;-63
2023/04/10 11:31:12;;;;;;;;;;;11.30;99.90;;;;;;5086817;28;19993;-64
2023/04/10 11:33:38;;;;;;;;;;;11.40;99.90;;;;;;5089278;28;19989;-61
2023/04/10 11:36:05;;;;;;;;;;;11.40;99.90;;;;;;5090353;28;20084;-64
2023/04/10 11:38:31;;;;;;;;;;;11.40;99.90;;;;;;5084608;28;20381;-62
2023/04/10 11:41:05;;;;;;;;;;;11.30;99.90;;;;;;5091607;28;20019;-63
2023/04/10 11:43:32;;;;;;;;;;;11.40;99.90;;;;;;5089749;28;20328;-62
2023/04/10 11:46:02;;;;;;;;;;;11.70;99.90;;;;;;5092709;28;19989;-63
2023/04/10 11:48:28;;;;;;;;;;;11.70;99.90;;;;;;5090551;28;19988;-62
2023/04/10 11:50:54;;;;;;;;;;;11.70;99.90;;;;;;5093582;28;20031;-63
2023/04/10 11:53:20;;;;;;;;;;;11.70;99.90;;;;;;5094108;28;19993;-62
2023/04/10 11:55:46;;;;;;;;;;;11.80;99.90;;;;;;5094502;28;20107;-62
2023/04/10 11:58:21;;;;;;;;;;;11.90;99.90;;;;;;5097537;28;20446;-62
2023/04/10 12:00:55;;;;;;;;;;;11.70;99.90;;;;;;5112313;28;20374;-62
2023/04/10 12:03:50;;;;;;;;;;;11.70;99.90;;;;;;5091244;28;20001;-62
2023/04/10 12:06:17;;;;;;;;;;;11.90;99.90;;;;;;5086139;28;19992;-62
2023/04/10 12:08:49;;;;;;;;;;;12.10;99.90;;;;;;5085681;28;20404;-61
2023/04/10 12:11:33;;;;;;;;;;;12.10;99.90;;;;;;5072542;28;20012;-64
2023/04/10 12:13:59;;;;;;;;;;;11.90;99.90;;;;;;5072456;28;20008;-61
2023/04/10 12:16:26;;;;;;;;;;;11.80;99.90;;;;;;5072888;28;20374;-63
2023/04/10 12:18:51;;;;;;;;;;;11.80;99.90;;;;;;5073744;28;20050;-62
2023/04/10 12:21:17;;;;;;;;;;;11.90;99.90;;;;;;5073363;28;20092;-62
2023/04/10 12:23:43;;;;;;;;;;;11.70;99.90;;;;;;5075156;28;19993;-64
2023/04/10 12:26:09;;;;;;;;;;;11.70;99.90;;;;;;5074677;28;20588;-64
2023/04/10 12:28:36;;;;;;;;;;;12.00;99.90;;;;;;5090382;28;20096;-62
2023/04/10 12:31:02;;;;;;;;;;;12.30;99.90;;;;;;5091879;28;20072;-63
2023/04/10 12:33:27;;;;;;;;;;;12.40;99.90;;;;;;5092442;28;20126;-62
2023/04/10 12:35:53;;;;;;;;;;;12.00;99.90;;;;;;5093954;28;20116;-62
2023/04/10 12:38:35;;;;;;;;;;;11.80;99.90;;;;;;5094430;28;20363;-61
2023/04/10 12:41:02;;;;;;;;;;;11.90;99.90;;;;;;5091709;28;19989;-62
2023/04/10 12:43:34;;;;;;;;;;;12.10;99.90;;;;;;5093073;28;19995;-63
2023/04/10 12:46:00;;;;;;;;;;;12.20;99.90;;;;;;5092099;28;19989;-62
2023/04/10 12:48:26;;;;;;;;;;;12.40;99.90;;;;;;5093511;28;19993;-62
2023/04/10 12:50:51;;;;;;;;;;;12.60;99.90;;;;;;5091963;28;20012;-62
2023/04/10 12:53:17;;;;;;;;;;;12.70;99.90;;;;;;5091985;28;20083;-61
2023/04/10 12:56:16;;;;;;;;;;;12.80;99.90;;;;;;5092155;28;20012;-64
2023/04/10 12:58:43;;;;;;;;;;;12.50;99.90;;;;;;5078060;28;19996;-63
2023/04/10 13:01:08;;;;;;;;;;;12.30;99.90;;;;;;5092208;28;19986;-63
2023/04/10 13:03:35;;;;;;;;;;;12.40;99.90;;;;;;5092582;28;19985;-61
2023/04/10 13:06:01;;;;;;;;;;;12.40;99.90;;;;;;5093069;28;19984;-62
2023/04/10 13:08:26;;;;;;;;;;;12.50;99.90;;;;;;5093901;28;20018;-63
2023/04/10 13:10:53;;;;;;;;;;;12.50;99.90;;;;;;5095039;28;20486;-62
2023/04/10 13:13:19;;;;;;;;;;;12.50;99.90;;;;;;5094869;28;20087;-61
2023/04/10 13:15:45;;;;;;;;;;;12.30;99.90;;;;;;5094849;28;20099;-61
2023/04/10 13:18:10;;;;;;;;;;;12.50;99.90;;;;;;5094766;28;19985;-63
2023/04/10 13:20:36;;;;;;;;;;;12.40;99.90;;;;;;5095238;28;19988;-62
2023/04/10 13:23:02;;;;;;;;;;;12.50;99.90;;;;;;5095020;28;19989;-64
2023/04/10 13:25:32;;;;;;;;;;;12.40;99.90;;;;;;5094854;28;19985;-63
2023/04/10 13:27:59;;;;;;;;;;;12.60;99.90;;;;;;5094828;28;19984;-61
2023/04/10 13:30:24;;;;;;;;;;;12.60;99.90;;;;;;5094316;28;20028;-60
2023/04/10 13:32:50;;;;;;;;;;;12.90;99.90;;;;;;5094046;28;20035;-63
2023/04/10 13:35:15;;;;;;;;;;;13.00;99.90;;;;;;5094769;28;20067;-62
2023/04/10 13:37:41;;;;;;;;;;;13.00;99.90;;;;;;5094009;28;19997;-61
2023/04/10 13:40:07;;;;;;;;;;;13.20;99.90;;;;;;5094710;28;19989;-62
2023/04/10 13:42:32;;;;;;;;;;;13.40;99.90;;;;;;5094583;28;19985;-63
2023/04/10 13:44:58;;;;;;;;;;;13.70;98.90;;;;;;5094653;28;20126;-62
2023/04/10 13:47:23;;;;;;;;;;;13.50;97.70;;;;;;5094575;28;19985;-63
2023/04/10 13:49:49;;;;;;;;;;;13.10;99.10;;;;;;5094746;28;19985;-64
2023/04/10 13:52:15;;;;;;;;;;;12.90;99.90;;;;;;5094780;28;20024;-61
2023/04/10 13:54:40;;;;;;;;;;;13.20;99.90;;;;;;5094347;28;20362;-64
2023/04/10 13:57:06;;;;;;;;;;;13.40;99.90;;;;;;5094278;28;20121;-63
2023/04/10 13:59:31;;;;;;;;;;;13.40;99.20;;;;;;5094739;28;20358;-63
2023/04/10 14:01:57;;;;;;;;;;;13.00;99.90;;;;;;5094446;28;20415;-61
2023/04/10 14:04:22;;;;;;;;;;;13.20;99.90;;;;;;5094320;28;19989;-62
2023/04/10 14:06:49;;;;;;;;;;;13.20;99.90;;;;;;5094297;28;20080;-61
2023/04/10 14:09:14;;;;;;;;;;;13.30;99.90;;;;;;5094085;28;19988;-64
2023/04/10 14:11:40;;;;;;;;;;;13.60;99.00;;;;;;5094468;28;19996;-61
2023/04/10 14:14:06;;;;;;;;;;;13.80;97.70;;;;;;5094112;28;20005;-62
2023/04/10 14:16:31;;;;;;;;;;;13.90;96.90;;;;;;5094399;28;20466;-64
2023/04/10 14:18:57;;;;;;;;;;;13.90;96.90;;;;;;5094093;28;20445;-63
2023/04/10 14:21:22;;;;;;;;;;;14.20;97.10;;;;;;5094095;28;19988;-63
2023/04/10 14:23:48;;;;;;;;;;;14.20;95.80;;;;;;5093870;28;19989;-61
2023/04/10 14:26:13;;;;;;;;;;;14.20;98.60;;;;;;5094086;28;20068;-64
2023/04/10 14:28:39;;;;;;;;;;;14.10;97.50;;;;;;5093848;28;20018;-64
2023/04/10 14:31:06;;;;;;;;;;;14.00;96.90;;;;;;5093974;28;20007;-64